Lorraine, New York
Current Conditions -  °F | °C
As of 7:56 PM on Saturday 25 Oct 2014 (Local Time) from KART Reporting Station
Broken Clouds Broken Clouds  
Wind Chill: 56°   Ceiling: 7000
Heat Index: 56°   Visibility: 7mi
Dew Point: 49°   Wind: 10mph
Humidity: 77%   Direction: 240°WSW
Pressure: 29.55"   Gusts: NA
Location:  43.77°N, 75.96°W
Report Text: KART 252356Z AUTO 24009KT 7SM BKN070 13/09 A2955 RMK AO2 SLP008 60013 T01330094 10161 20117 51013
Loading
Personal Weather Stations






























Interactive Weather Map
Tropical Storm Tracking
New forecast layout! Learn more

10-Day Weather Forecast

Advertisements
Track Severe Weather on mobile